sensor_id;sensor_type;location;lat;lon;timestamp;pressure;altitude;pressure_sealevel;temperature;humidity
39699;BME280;25372;50.582;12.250;2022-10-31T08:30:21;100419.69;;;9.16;100.00
39699;BME280;25372;50.582;12.250;2022-10-31T08:41:02;100415.16;;;9.59;100.00
39699;BME280;25372;50.582;12.250;2022-10-31T08:51:24;100409.59;;;10.03;100.00
39699;BME280;25372;50.582;12.250;2022-10-31T09:01:48;100406.75;;;10.29;100.00
39699;BME280;25372;50.582;12.250;2022-10-31T09:12:13;100406.00;;;10.77;100.00
39699;BME280;25372;50.582;12.250;2022-10-31T09:23:02;100416.88;;;11.30;100.00
39699;BME280;25372;50.582;12.250;2022-10-31T09:33:28;100409.03;;;11.68;100.00
39699;BME280;25372;50.582;12.250;2022-10-31T09:44:14;100402.69;;;12.15;100.00
39699;BME280;25372;50.582;12.250;2022-10-31T09:54:44;100394.53;;;12.70;100.00
39699;BME280;25372;50.582;12.250;2022-10-31T10:05:10;100396.56;;;13.19;98.67
39699;BME280;25372;50.582;12.250;2022-10-31T10:15:47;100390.63;;;13.75;90.87
39699;BME280;25372;50.582;12.250;2022-10-31T10:26:16;100380.91;;;13.89;91.94
39699;BME280;25372;50.582;12.250;2022-10-31T10:36:41;100376.56;;;14.38;88.42
39699;BME280;25372;50.582;12.250;2022-10-31T10:47:04;100364.84;;;14.68;87.28
39699;BME280;25372;50.582;12.250;2022-10-31T10:57:55;100357.00;;;15.08;83.23
39699;BME280;25372;50.582;12.250;2022-10-31T11:08:24;100348.91;;;15.49;80.61
39699;BME280;25372;50.582;12.250;2022-10-31T11:18:46;100332.47;;;15.52;80.81
39699;BME280;25372;50.582;12.250;2022-10-31T11:29:14;100315.03;;;16.03;76.08
39699;BME280;25372;50.582;12.250;2022-10-31T11:39:40;100304.13;;;16.05;76.30
39699;BME280;25372;50.582;12.250;2022-10-31T11:50:09;100286.13;;;16.46;73.80
39699;BME280;25372;50.582;12.250;2022-10-31T12:00:36;100288.56;;;16.47;72.83
39699;BME280;25372;50.582;12.250;2022-10-31T12:11:02;100279.25;;;16.63;72.59
39699;BME280;25372;50.582;12.250;2022-10-31T12:21:38;100266.88;;;16.69;74.46
39699;BME280;25372;50.582;12.250;2022-10-31T12:32:16;100263.66;;;16.99;71.60
39699;BME280;25372;50.582;12.250;2022-10-31T12:42:51;100245.31;;;17.02;73.65
39699;BME280;25372;50.582;12.250;2022-10-31T12:53:19;100234.41;;;16.97;72.66
39699;BME280;25372;50.582;12.250;2022-10-31T13:03:54;100225.16;;;16.93;72.69
39699;BME280;25372;50.582;12.250;2022-10-31T13:14:24;100211.63;;;17.13;71.23
39699;BME280;25372;50.582;12.250;2022-10-31T13:24:53;100198.00;;;17.21;69.59
39699;BME280;25372;50.582;12.250;2022-10-31T13:35:21;100204.16;;;16.97;71.70
39699;BME280;25372;50.582;12.250;2022-10-31T13:45:50;100197.22;;;16.82;73.27
39699;BME280;25372;50.582;12.250;2022-10-31T13:56:15;100185.84;;;16.55;74.33
39699;BME280;25372;50.582;12.250;2022-10-31T14:06:52;100185.19;;;16.21;76.67
39699;BME280;25372;50.582;12.250;2022-10-31T14:17:19;100170.81;;;16.15;76.39
39699;BME280;25372;50.582;12.250;2022-10-31T14:27:46;100136.44;;;15.47;81.15
39699;BME280;25372;50.582;12.250;2022-10-31T14:38:20;100146.94;;;15.02;84.57
39699;BME280;25372;50.582;12.250;2022-10-31T14:49:03;100136.97;;;14.28;90.59
39699;BME280;25372;50.582;12.250;2022-10-31T14:59:30;100134.63;;;13.64;94.69
39699;BME280;25372;50.582;12.250;2022-10-31T15:09:57;100122.56;;;13.11;97.66
39699;BME280;25372;50.582;12.250;2022-10-31T15:20:19;100120.72;;;12.62;100.00
39699;BME280;25372;50.582;12.250;2022-10-31T15:30:51;100122.22;;;12.13;100.00
39699;BME280;25372;50.582;12.250;2022-10-31T15:41:27;100118.78;;;11.67;100.00
39699;BME280;25372;50.582;12.250;2022-10-31T15:51:51;100111.94;;;11.43;100.00
39699;BME280;25372;50.582;12.250;2022-10-31T16:02:14;100091.75;;;11.04;100.00
39699;BME280;25372;50.582;12.250;2022-10-31T16:23:16;100093.38;;;10.67;100.00
39699;BME280;25372;50.582;12.250;2022-10-31T16:33:38;100092.34;;;10.53;100.00
39699;BME280;25372;50.582;12.250;2022-10-31T16:44:02;100094.16;;;10.29;100.00
39699;BME280;25372;50.582;12.250;2022-10-31T16:54:24;100091.28;;;10.39;100.00
39699;BME280;25372;50.582;12.250;2022-10-31T17:04:46;100098.94;;;10.26;100.00
39699;BME280;25372;50.582;12.250;2022-10-31T17:15:14;100086.50;;;10.03;100.00
39699;BME280;25372;50.582;12.250;2022-10-31T17:25:38;100082.22;;;10.02;100.00
39699;BME280;25372;50.582;12.250;2022-10-31T17:36:01;100081.44;;;9.93;100.00
39699;BME280;25372;50.582;12.250;2022-10-31T17:46:24;100068.03;;;9.87;100.00
39699;BME280;25372;50.582;12.250;2022-10-31T17:56:46;100065.44;;;10.10;100.00
39699;BME280;25372;50.582;12.250;2022-10-31T18:07:08;100063.97;;;10.07;100.00
39699;BME280;25372;50.582;12.250;2022-10-31T18:17:29;100052.38;;;10.08;100.00
39699;BME280;25372;50.582;12.250;2022-10-31T18:27:51;100059.63;;;10.15;100.00
39699;BME280;25372;50.582;12.250;2022-10-31T18:38:12;100006.03;;;9.81;100.00
39699;BME280;25372;50.582;12.250;2022-10-31T18:48:34;100036.97;;;10.12;100.00
39699;BME280;25372;50.582;12.250;2022-10-31T18:58:57;100041.28;;;9.82;100.00
39699;BME280;25372;50.582;12.250;2022-10-31T19:09:20;100034.81;;;9.45;100.00
39699;BME280;25372;50.582;12.250;2022-10-31T19:19:42;100025.34;;;9.19;100.00
39699;BME280;25372;50.582;12.250;2022-10-31T19:30:06;100013.81;;;9.03;100.00
39699;BME280;25372;50.582;12.250;2022-10-31T19:40:27;100010.81;;;9.15;100.00
39699;BME280;25372;50.582;12.250;2022-10-31T19:50:50;100005.84;;;9.12;100.00
39699;BME280;25372;50.582;12.250;2022-10-31T20:01:13;99986.72;;;8.93;100.00
39699;BME280;25372;50.582;12.250;2022-10-31T20:11:36;99988.75;;;8.83;100.00
39699;BME280;25372;50.582;12.250;2022-10-31T20:21:57;99985.88;;;9.01;100.00
39699;BME280;25372;50.582;12.250;2022-10-31T20:32:20;99986.47;;;9.28;100.00
39699;BME280;25372;50.582;12.250;2022-10-31T20:42:40;99966.72;;;9.47;100.00
39699;BME280;25372;50.582;12.250;2022-10-31T20:53:03;99955.28;;;9.46;100.00
39699;BME280;25372;50.582;12.250;2022-10-31T21:03:25;99934.28;;;9.45;100.00
39699;BME280;25372;50.582;12.250;2022-10-31T21:13:48;99942.97;;;9.30;100.00
39699;BME280;25372;50.582;12.250;2022-10-31T21:24:12;99928.22;;;8.96;100.00
39699;BME280;25372;50.582;12.250;2022-10-31T21:34:34;99942.41;;;9.03;100.00
39699;BME280;25372;50.582;12.250;2022-10-31T21:44:55;99915.16;;;9.03;100.00
39699;BME280;25372;50.582;12.250;2022-10-31T21:55:18;99899.56;;;8.77;100.00
39699;BME280;25372;50.582;12.250;2022-10-31T22:05:39;99882.53;;;8.79;100.00
39699;BME280;25372;50.582;12.250;2022-10-31T22:16:01;99876.31;;;9.58;100.00
39699;BME280;25372;50.582;12.250;2022-10-31T22:26:23;99879.63;;;9.83;100.00
39699;BME280;25372;50.582;12.250;2022-10-31T22:36:45;99872.34;;;9.62;100.00
39699;BME280;25372;50.582;12.250;2022-10-31T22:47:07;99855.47;;;10.01;100.00
39699;BME280;25372;50.582;12.250;2022-10-31T22:57:29;99841.09;;;9.81;100.00
39699;BME280;25372;50.582;12.250;2022-10-31T23:07:50;99834.84;;;9.97;100.00
39699;BME280;25372;50.582;12.250;2022-10-31T23:18:13;99819.19;;;9.49;100.00
39699;BME280;25372;50.582;12.250;2022-10-31T23:28:34;99802.59;;;9.08;100.00
39699;BME280;25372;50.582;12.250;2022-10-31T23:38:56;99795.03;;;8.74;100.00
39699;BME280;25372;50.582;12.250;2022-10-31T23:49:17;99768.66;;;8.58;100.00
39699;BME280;25372;50.582;12.250;2022-10-31T23:59:39;99779.00;;;8.76;100.00
